Southern Star — WDG9984 — position and weather

sailwx.info

Track history (hours):
 
Tides and Currents Weather Stations Pressure Air Temp Water Temp Dewpoint Dewpoint Depression Visibility Wind Speed Wind Dir Waves Ship Positions

Southern Star

Owner: Southern Star, LLC, Chesapeake, VA. More information available from US FCC via Universal Licensing System and Coast Guard Vessel Documentation Center.

Last reported at 2017-Dec-11 16:59 UTC. Time now 2017-Dec-13 01:47 UTC.
Position N 36°53' W 076°21'.

Length 13 m; draft 3.5 m.

Type: Tug. MMSI: 367593210.

Date/timePositionNaut miles runAvg speedWind from/ knotsBaromVisibWave heightAir tempDewpointWater temp
2017-Dec-11 16:59N 36°53' W 076°21'0 0.0
2017-Dec-11 16:30N 36°53' W 076°21'1 1.5
2017-Dec-11 15:55N 36°53' W 076°20'2 4.4
2017-Dec-11 15:30N 36°55' W 076°20'0 0.4
2017-Dec-11 15:00N 36°55' W 076°20'2 5.0
2017-Dec-11 14:30N 36°53' W 076°21'0 0.5
2017-Dec-11 13:59N 36°53' W 076°21'0 0.0
2017-Dec-11 13:30N 36°53' W 076°21'2 2.8
2017-Dec-11 12:37N 36°55' W 076°20'0 2.5
2017-Dec-11 12:30N 36°55' W 076°20'0 0.1
2017-Dec-11 12:00N 36°55' W 076°20'1 2.4
2017-Dec-11 11:29N 36°54' W 076°20'5 9.6
2017-Dec-11 11:00N 36°50' W 076°18'1 2.5
2017-Dec-11 10:30N 36°48' W 076°17'0 0.0
2017-Dec-10 00:16N 36°48' W 076°17'0 0.7
2017-Dec-10 00:00N 36°48' W 076°17'3 5.6
2017-Dec-09 23:28N 36°51' W 076°19'119 7.4
2017-Dec-09 07:24N 38°50' W 076°26'8 8.3
2017-Dec-09 06:25N 38°58' W 076°24'13 7.8
2017-Dec-09 04:46N 39°11' W 076°26'0 1.5
2017-Dec-09 04:30N 39°11' W 076°27'4 8.3
2017-Dec-09 04:00N 39°13' W 076°31'3 5.1
2017-Dec-09 03:30N 39°13' W 076°35'3 5.5
2017-Dec-09 03:01N 39°13' W 076°31'11 8.5
2017-Dec-09 01:45N 39°15' W 076°18'10 9.7
2017-Dec-09 00:44N 39°22' W 076°09'210.2
2017-Dec-09 00:30N 39°23' W 076°06'5 9.8
2017-Dec-09 00:00N 39°26' W 076°01'2 5.0
2017-Dec-08 23:31N 39°28' W 075°59'4 7.8
2017-Dec-08 23:00N 39°30' W 075°55'4 8.9
2017-Dec-08 22:30N 39°32' W 075°50'5 9.6
2017-Dec-08 22:00N 39°33' W 075°43'510.1
2017-Dec-08 21:30N 39°33' W 075°37'3 7.0
2017-Dec-08 21:00N 39°32' W 075°33'4 8.2
2017-Dec-08 20:30N 39°28' W 075°33'3 6.3
2017-Dec-08 20:00N 39°25' W 075°31'5 9.5
2017-Dec-08 19:30N 39°22' W 075°27'510.0
2017-Dec-08 19:00N 39°18' W 075°23'510.0
2017-Dec-08 18:30N 39°14' W 075°19'5 9.8
2017-Dec-08 18:00N 39°10' W 075°16'55 6.1
2017-Dec-08 09:03N 39°32' W 074°11'1 8.2
2017-Dec-08 08:57N 39°33' W 074°11'4 8.2
2017-Dec-08 08:30N 39°36' W 074°08'4 8.2
2017-Dec-08 08:00N 39°40' W 074°06'4 8.1
2017-Dec-08 07:30N 39°44' W 074°04'4 8.2
2017-Dec-08 06:58N 39°48' W 074°03'  
2017-Dec-03 23:23N 39°49' W 074°01'410.2
2017-Dec-03 23:00N 39°46' W 074°02'510.4
2017-Dec-03 22:30N 39°41' W 074°05'610.3
2017-Dec-03 21:57N 39°36' W 074°08'180 5.3
2017-Dec-02 11:56N 36°59' W 076°01'2 4.6
2017-Dec-02 11:25N 36°58' W 076°04'1 2.9
2017-Dec-02 11:00N 36°58' W 076°05'12 3.6
2017-Dec-02 07:42N 36°56' W 076°20'1 5.5
2017-Dec-02 07:30N 36°55' W 076°20'3 5.5
2017-Dec-02 07:00N 36°53' W 076°20'3 5.5
2017-Dec-02 06:30N 36°51' W 076°18'1 1.1
2017-Dec-02 06:00N 36°50' W 076°17'0 0.5
2017-Dec-02 05:30N 36°50' W 076°17'1 1.5
2017-Dec-02 05:00N 36°50' W 076°18'2 4.1
2017-Dec-02 04:30N 36°48' W 076°17'3 5.7
2017-Dec-02 04:00N 36°46' W 076°18'0 0.8
2017-Dec-02 03:30N 36°45' W 076°18'2 3.5
2017-Dec-02 03:00N 36°47' W 076°18'2 3.7
2017-Dec-02 02:30N 36°48' W 076°17'0 0.7
2017-Dec-02 02:00N 36°49' W 076°17'2 3.8
2017-Dec-02 01:31N 36°50' W 076°16'1 1.2
2017-Dec-02 01:00N 36°50' W 076°15'2 4.9
2017-Dec-02 00:30N 36°51' W 076°18'3 5.0
2017-Dec-02 00:00N 36°53' W 076°20'0 0.0
2017-Dec-01 23:30N 36°53' W 076°20'0 0.0
2017-Dec-01 23:00N 36°53' W 076°20'0 0.0
2017-Dec-01 22:30N 36°53' W 076°20'0 0.0
2017-Dec-01 22:00N 36°53' W 076°20'0 0.0
2017-Dec-01 21:30N 36°53' W 076°20'0 0.0
2017-Dec-01 21:01N 36°53' W 076°20'0 0.0
2017-Dec-01 20:30N 36°53' W 076°20'0 0.0
2017-Dec-01 20:00N 36°53' W 076°20'0 0.1
2017-Dec-01 19:30N 36°53' W 076°20'3 3.3
2017-Dec-01 18:35N 36°56' W 076°20'0 0.7
2017-Dec-01 18:11N 36°56' W 076°20'0 1.9
2017-Dec-01 17:57N 36°56' W 076°20'4 9.9
2017-Dec-01 17:30N 36°51' W 076°19'3 5.7
2017-Dec-01 17:00N 36°49' W 076°17'  
Track history (hours):
 
Tides and Currents Weather Stations Pressure Air Temp Water Temp Dewpoint Dewpoint Depression Visibility Wind Speed Wind Dir Waves Ship Positions

Southern Star

Owner: Southern Star, LLC, Chesapeake, VA. More information available from US FCC via Universal Licensing System and Coast Guard Vessel Documentation Center.

Last reported at 2017-Dec-11 16:59 UTC. Time now 2017-Dec-13 01:47 UTC.
Position N 36°53' W 076°21'.

Length 13 m; draft 3.5 m.

Type: Tug. MMSI: 367593210.

Date/timePositionNaut miles runAvg speedWind from/ knotsBaromVisibWave heightAir tempDewpointWater temp
2017-Dec-11 16:59N 36°53' W 076°21'0 0.0
2017-Dec-11 16:30N 36°53' W 076°21'1 1.5
2017-Dec-11 15:55N 36°53' W 076°20'2 4.4
2017-Dec-11 15:30N 36°55' W 076°20'0 0.4
2017-Dec-11 15:00N 36°55' W 076°20'2 5.0
2017-Dec-11 14:30N 36°53' W 076°21'0 0.5
2017-Dec-11 13:59N 36°53' W 076°21'0 0.0
2017-Dec-11 13:30N 36°53' W 076°21'2 2.8
2017-Dec-11 12:37N 36°55' W 076°20'0 2.5
2017-Dec-11 12:30N 36°55' W 076°20'0 0.1
2017-Dec-11 12:00N 36°55' W 076°20'1 2.4
2017-Dec-11 11:29N 36°54' W 076°20'5 9.6
2017-Dec-11 11:00N 36°50' W 076°18'1 2.5
2017-Dec-11 10:30N 36°48' W 076°17'0 0.0
2017-Dec-10 00:16N 36°48' W 076°17'0 0.7
2017-Dec-10 00:00N 36°48' W 076°17'3 5.6
2017-Dec-09 23:28N 36°51' W 076°19'119 7.4
2017-Dec-09 07:24N 38°50' W 076°26'8 8.3
2017-Dec-09 06:25N 38°58' W 076°24'13 7.8
2017-Dec-09 04:46N 39°11' W 076°26'0 1.5
2017-Dec-09 04:30N 39°11' W 076°27'4 8.3
2017-Dec-09 04:00N 39°13' W 076°31'3 5.1
2017-Dec-09 03:30N 39°13' W 076°35'3 5.5
2017-Dec-09 03:01N 39°13' W 076°31'11 8.5
2017-Dec-09 01:45N 39°15' W 076°18'10 9.7
2017-Dec-09 00:44N 39°22' W 076°09'210.2
2017-Dec-09 00:30N 39°23' W 076°06'5 9.8
2017-Dec-09 00:00N 39°26' W 076°01'2 5.0
2017-Dec-08 23:31N 39°28' W 075°59'4 7.8
2017-Dec-08 23:00N 39°30' W 075°55'4 8.9
2017-Dec-08 22:30N 39°32' W 075°50'5 9.6
2017-Dec-08 22:00N 39°33' W 075°43'510.1
2017-Dec-08 21:30N 39°33' W 075°37'3 7.0
2017-Dec-08 21:00N 39°32' W 075°33'4 8.2
2017-Dec-08 20:30N 39°28' W 075°33'3 6.3
2017-Dec-08 20:00N 39°25' W 075°31'5 9.5
2017-Dec-08 19:30N 39°22' W 075°27'510.0
2017-Dec-08 19:00N 39°18' W 075°23'510.0
2017-Dec-08 18:30N 39°14' W 075°19'5 9.8
2017-Dec-08 18:00N 39°10' W 075°16'55 6.1
2017-Dec-08 09:03N 39°32' W 074°11'1 8.2
2017-Dec-08 08:57N 39°33' W 074°11'4 8.2
2017-Dec-08 08:30N 39°36' W 074°08'4 8.2
2017-Dec-08 08:00N 39°40' W 074°06'4 8.1
2017-Dec-08 07:30N 39°44' W 074°04'4 8.2
2017-Dec-08 06:58N 39°48' W 074°03'  
2017-Dec-03 23:23N 39°49' W 074°01'410.2
2017-Dec-03 23:00N 39°46' W 074°02'510.4
2017-Dec-03 22:30N 39°41' W 074°05'610.3
2017-Dec-03 21:57N 39°36' W 074°08'180 5.3
2017-Dec-02 11:56N 36°59' W 076°01'2 4.6
2017-Dec-02 11:25N 36°58' W 076°04'1 2.9
2017-Dec-02 11:00N 36°58' W 076°05'12 3.6
2017-Dec-02 07:42N 36°56' W 076°20'1 5.5
2017-Dec-02 07:30N 36°55' W 076°20'3 5.5
2017-Dec-02 07:00N 36°53' W 076°20'3 5.5
2017-Dec-02 06:30N 36°51' W 076°18'1 1.1
2017-Dec-02 06:00N 36°50' W 076°17'0 0.5
2017-Dec-02 05:30N 36°50' W 076°17'1 1.5
2017-Dec-02 05:00N 36°50' W 076°18'2 4.1
2017-Dec-02 04:30N 36°48' W 076°17'3 5.7
2017-Dec-02 04:00N 36°46' W 076°18'0 0.8
2017-Dec-02 03:30N 36°45' W 076°18'2 3.5
2017-Dec-02 03:00N 36°47' W 076°18'2 3.7
2017-Dec-02 02:30N 36°48' W 076°17'0 0.7
2017-Dec-02 02:00N 36°49' W 076°17'2 3.8
2017-Dec-02 01:31N 36°50' W 076°16'1 1.2
2017-Dec-02 01:00N 36°50' W 076°15'2 4.9
2017-Dec-02 00:30N 36°51' W 076°18'3 5.0
2017-Dec-02 00:00N 36°53' W 076°20'0 0.0
2017-Dec-01 23:30N 36°53' W 076°20'0 0.0
2017-Dec-01 23:00N 36°53' W 076°20'0 0.0
2017-Dec-01 22:30N 36°53' W 076°20'0 0.0
2017-Dec-01 22:00N 36°53' W 076°20'0 0.0
2017-Dec-01 21:30N 36°53' W 076°20'0 0.0
2017-Dec-01 21:01N 36°53' W 076°20'0 0.0
2017-Dec-01 20:30N 36°53' W 076°20'0 0.0
2017-Dec-01 20:00N 36°53' W 076°20'0 0.1
2017-Dec-01 19:30N 36°53' W 076°20'3 3.3
2017-Dec-01 18:35N 36°56' W 076°20'0 0.7
2017-Dec-01 18:11N 36°56' W 076°20'0 1.9
2017-Dec-01 17:57N 36°56' W 076°20'4 9.9
2017-Dec-01 17:30N 36°51' W 076°19'3 5.7
2017-Dec-01 17:00N 36°49' W 076°17'  

Dump ship's entire track history